Time;durP1;ratioP1;P1;durP2;ratioP2;P2;SDS_P1;SDS_P2;PMS_P1;PMS_P2;Temp;Humidity;BMP_temperature;BMP_pressure;BME280_temperature;BME280_humidity;BME280_pressure;Samples;Min_cycle;Max_cycle;Signal;HPM_P1;HPM_P2
2024/03/30 00:01:56;;;;;;;24.40;4.70;;;;;;;10.57;65.11;96258.51;107478;1244;100256;-82
2024/03/30 00:04:49;;;;;;;20.60;4.30;;;;;;;10.59;65.12;96258.34;107628;1241;99540;-82
2024/03/30 00:07:18;;;;;;;18.60;4.00;;;;;;;10.66;65.13;96258.96;107610;1242;100507;-84
2024/03/30 00:10:25;;;;;;;18.50;4.80;;;;;;;10.76;65.17;96261.65;107702;1241;99815;-81
2024/03/30 00:13:32;;;;;;;16.10;3.90;;;;;;;10.87;65.10;96263.54;107661;1240;103824;-84
2024/03/30 00:16:39;;;;;;;25.50;4.40;;;;;;;10.93;64.99;96260.30;107705;1251;100392;-78
2024/03/30 00:19:35;;;;;;;22.10;4.40;;;;;;;11.08;64.96;96264.69;107644;1236;100376;-81
2024/03/30 00:22:42;;;;;;;21.80;4.20;;;;;;;11.24;64.80;96257.73;107638;1238;100512;-81
2024/03/30 00:25:38;;;;;;;18.00;4.00;;;;;;;11.40;64.60;96262.89;107642;1242;99779;-83
2024/03/30 00:28:45;;;;;;;27.40;5.00;;;;;;;11.50;64.22;96256.69;107651;1238;103907;-81
2024/03/30 00:31:52;;;;;;;24.70;4.20;;;;;;;11.63;64.09;96256.84;107658;1241;101255;-82
2024/03/30 00:34:59;;;;;;;27.50;4.80;;;;;;;11.81;63.80;96255.69;107643;1247;99274;-82
2024/03/30 00:37:56;;;;;;;23.00;3.70;;;;;;;12.04;63.59;96261.56;107654;1250;99282;-78
2024/03/30 00:40:43;;;;;;;26.00;5.20;;;;;;;12.21;63.14;96264.39;107539;1249;99680;-80
2024/03/30 00:43:50;;;;;;;30.90;4.30;;;;;;;12.29;62.82;96259.48;107637;1241;104954;-83
2024/03/30 00:46:42;;;;;;;20.50;4.30;;;;;;;12.42;62.62;96260.08;107709;1240;101728;-79
2024/03/30 00:49:48;;;;;;;31.60;5.10;;;;;;;12.51;62.31;96262.05;107571;1250;99332;-79
2024/03/30 00:52:54;;;;;;;31.10;3.80;;;;;;;12.63;61.99;96260.33;107605;1242;99323;-78
2024/03/30 00:56:02;;;;;;;27.80;5.00;;;;;;;12.78;61.76;96260.32;107639;1236;99814;-77
2024/03/30 00:59:01;;;;;;;23.00;4.30;;;;;;;12.89;61.26;96265.06;107655;1251;103792;-80
2024/03/30 01:02:08;;;;;;;18.20;3.90;;;;;;;12.94;61.06;96263.16;107557;1242;100949;-83
2024/03/30 01:05:06;;;;;;;23.40;4.20;;;;;;;13.00;60.86;96260.15;107654;1241;99936;-82
2024/03/30 01:08:12;;;;;;;24.60;3.90;;;;;;;13.05;60.71;96252.55;107649;1248;99557;-83
2024/03/30 01:11:19;;;;;;;21.80;4.40;;;;;;;13.00;60.41;96258.73;107691;1251;99710;-82
2024/03/30 01:14:12;;;;;;;32.80;4.50;;;;;;;12.86;60.41;96253.80;107605;1242;103839;-81
2024/03/30 01:17:19;;;;;;;21.10;4.70;;;;;;;12.78;60.45;96251.17;107557;1241;101287;-79
2024/03/30 01:20:26;;;;;;;29.00;6.40;;;;;;;12.65;60.62;96252.64;107628;1248;99305;-77
2024/03/30 01:23:33;;;;;;;27.70;5.80;;;;;;;12.51;60.73;96255.16;107643;1240;99336;-79
2024/03/30 01:26:40;;;;;;;27.00;4.80;;;;;;;12.33;60.82;96257.96;107660;1243;99865;-78
2024/03/30 01:29:47;;;;;;;23.10;4.60;;;;;;;12.12;60.98;96256.11;107620;1248;103816;-78
2024/03/30 01:32:54;;;;;;;22.90;4.50;;;;;;;11.97;61.30;96255.45;107625;1250;100334;-84
2024/03/30 01:35:46;;;;;;;26.20;6.20;;;;;;;11.87;61.46;96254.80;107637;1240;99679;-83
2024/03/30 01:38:42;;;;;;;23.10;4.80;;;;;;;11.77;61.64;96256.04;107651;1236;99356;-81
2024/03/30 01:41:36;;;;;;;25.50;4.60;;;;;;;11.69;61.81;96253.27;107566;1251;99298;-83
2024/03/30 01:44:43;;;;;;;20.70;5.50;;;;;;;11.58;61.94;96243.62;107663;1242;103403;-83
2024/03/30 01:47:43;;;;;;;21.10;5.40;;;;;;;11.48;62.21;96249.35;107242;1251;100491;-83
2024/03/30 01:50:43;;;;;;;29.60;6.00;;;;;;;11.42;62.53;96249.23;107574;1251;99287;-82
2024/03/30 01:53:50;;;;;;;26.80;5.10;;;;;;;11.35;62.71;96241.14;107504;1245;99324;-85
2024/03/30 01:56:57;;;;;;;30.60;6.00;;;;;;;11.30;62.90;96239.64;107618;1247;99254;-83
2024/03/30 02:00:06;;;;;;;18.70;5.20;;;;;;;11.23;63.07;96241.14;107658;1249;103762;-82
2024/03/30 02:03:13;;;;;;;21.80;4.80;;;;;;;11.16;63.18;96243.28;107645;1241;100232;-80
2024/03/30 02:06:20;;;;;;;25.60;5.80;;;;;;;11.12;63.35;96250.38;107626;1241;100040;-78
2024/03/30 02:09:27;;;;;;;29.50;6.10;;;;;;;11.12;63.46;96250.17;107613;1241;99760;-80
2024/03/30 02:12:34;;;;;;;23.30;5.10;;;;;;;11.11;63.46;96246.90;107628;1241;99871;-78
2024/03/30 02:15:41;;;;;;;26.10;5.40;;;;;;;11.11;63.61;96251.66;107338;1242;103877;-79
2024/03/30 02:18:31;;;;;;;26.80;6.00;;;;;;;11.11;63.69;96251.52;107637;1241;101326;-78
2024/03/30 02:21:38;;;;;;;25.00;6.30;;;;;;;11.11;63.74;96251.67;107684;1240;99343;-78
2024/03/30 02:24:45;;;;;;;29.00;5.80;;;;;;;11.02;63.77;96257.55;107618;1247;99206;-78
2024/03/30 02:27:52;;;;;;;28.00;5.00;;;;;;;10.94;63.96;96257.13;107651;1241;99892;-79
2024/03/30 02:31:02;;;;;;;21.20;5.20;;;;;;;10.90;64.31;96264.60;103582;1248;5413091;-79
2024/03/30 02:34:09;;;;;;;28.20;4.50;;;;;;;10.89;64.38;96254.80;106800;1247;100827;-82
2024/03/30 02:37:16;;;;;;;26.90;4.80;;;;;;;10.91;64.35;96258.26;106935;1249;99385;-82
2024/03/30 02:40:15;;;;;;;23.30;5.40;;;;;;;10.91;64.43;96263.44;106820;1245;99815;-84
2024/03/30 02:43:14;;;;;;;35.60;6.10;;;;;;;10.90;64.49;96265.75;106833;1248;103888;-82
2024/03/30 02:46:21;;;;;;;19.30;4.20;;;;;;;10.88;64.59;96263.48;106788;1250;100362;-83
2024/03/30 02:49:28;;;;;;;34.80;5.00;;;;;;;10.83;64.66;96267.79;106926;1254;100060;-79
2024/03/30 02:52:35;;;;;;;23.20;5.10;;;;;;;10.78;64.66;96266.65;106853;1245;99412;-81
2024/03/30 02:55:42;;;;;;;33.30;6.60;;;;;;;10.72;64.82;96268.15;106878;1247;99939;-81
2024/03/30 02:58:42;;;;;;;20.20;5.20;;;;;;;10.66;64.97;96265.86;106869;1247;103877;-81
2024/03/30 03:01:49;;;;;;;30.60;5.50;;;;;;;10.64;65.09;96263.45;106876;1258;101205;-81
2024/03/30 03:04:36;;;;;;;25.50;6.00;;;;;;;10.60;65.21;96268.39;106875;1247;99325;-81
2024/03/30 03:07:26;;;;;;;28.30;5.50;;;;;;;10.49;65.33;96268.45;106870;1247;99930;-82
2024/03/30 03:10:33;;;;;;;28.50;6.80;;;;;;;10.47;65.51;96270.36;106938;1245;99851;-82
2024/03/30 03:13:40;;;;;;;25.00;6.40;;;;;;;10.44;65.62;96271.24;107271;1250;103994;-83
2024/03/30 03:16:47;;;;;;;26.90;6.30;;;;;;;10.40;65.71;96278.11;107637;1238;100501;-83
2024/03/30 03:19:54;;;;;;;31.60;5.50;;;;;;;10.38;65.84;96270.28;107659;1241;99266;-82
2024/03/30 03:23:01;;;;;;;22.50;5.20;;;;;;;10.37;65.90;96282.30;107685;1244;99261;-84
2024/03/30 03:26:08;;;;;;;26.10;4.60;;;;;;;10.37;65.94;96274.51;107604;1240;99771;-82
2024/03/30 03:29:15;;;;;;;29.20;4.70;;;;;;;10.30;66.23;96271.50;107637;1248;103856;-81
2024/03/30 03:32:04;;;;;;;22.20;5.00;;;;;;;10.32;66.48;96273.01;107649;1248;101297;-80
2024/03/30 03:35:11;;;;;;;32.70;7.30;;;;;;;10.35;66.40;96271.93;107624;1250;99801;-80
2024/03/30 03:38:18;;;;;;;26.60;6.10;;;;;;;10.31;66.53;96268.05;107633;1243;99280;-80
2024/03/30 03:41:25;;;;;;;33.10;6.90;;;;;;;10.29;66.67;96270.87;107688;1242;99755;-82
2024/03/30 03:44:32;;;;;;;31.40;6.00;;;;;;;10.26;66.59;96268.55;107353;1242;112784;-81
2024/03/30 03:47:22;;;;;;;43.40;6.40;;;;;;;10.23;66.66;96263.14;107631;1241;100227;-83
2024/03/30 03:50:22;;;;;;;30.40;5.40;;;;;;;10.24;66.76;96265.38;107683;1241;99526;-81
2024/03/30 03:53:08;;;;;;;28.30;6.50;;;;;;;10.19;66.82;96264.38;107567;1249;99333;-81
2024/03/30 03:56:15;;;;;;;25.60;5.30;;;;;;;10.12;66.81;96269.52;107691;1239;99772;-80
2024/03/30 03:59:22;;;;;;;29.30;5.30;;;;;;;10.11;67.08;96275.59;107698;1236;104884;-80
2024/03/30 04:02:29;;;;;;;27.20;4.30;;;;;;;10.18;67.11;96277.42;107659;1238;100861;-81
2024/03/30 04:05:36;;;;;;;31.40;5.60;;;;;;;10.24;67.16;96286.26;107643;1238;99803;-80
2024/03/30 04:08:42;;;;;;;26.80;4.80;;;;;;;10.26;67.19;96293.59;107650;1241;99355;-81
2024/03/30 04:11:49;;;;;;;32.10;6.30;;;;;;;10.29;67.11;96294.02;107588;1243;100846;-84
2024/03/30 04:14:56;;;;;;;46.70;8.00;;;;;;;10.32;67.12;96299.60;107694;1241;103871;-82
2024/03/30 04:18:03;;;;;;;30.30;6.60;;;;;;;10.36;67.01;96300.12;107599;1241;100069;-79
2024/03/30 04:21:16;;;;;;;45.40;7.10;;;;;;;10.37;67.05;96303.39;107678;1241;99237;-79
2024/03/30 04:24:23;;;;;;;32.80;7.00;;;;;;;10.34;66.99;96304.81;107064;1241;99343;-79
2024/03/30 04:27:30;;;;;;;33.40;7.30;;;;;;;10.29;67.03;96307.06;107066;1245;99795;-81
2024/03/30 04:30:36;;;;;;;43.20;7.30;;;;;;;10.25;67.23;96318.64;107080;1244;103868;-78
2024/03/30 04:33:43;;;;;;;39.80;7.60;;;;;;;10.42;67.34;96313.49;107031;1247;100377;-81
2024/03/30 04:36:40;;;;;;;41.40;10.90;;;;;;;10.56;67.06;96313.98;107097;1245;99791;-87
2024/03/30 04:39:47;;;;;;;34.90;8.80;;;;;;;10.57;66.96;96314.95;107069;1248;99413;-82
2024/03/30 04:42:54;;;;;;;35.40;8.00;;;;;;;10.49;66.77;96319.05;107110;1244;100162;-81
2024/03/30 04:46:01;;;;;;;40.80;10.00;;;;;;;10.38;66.80;96321.16;107080;1245;104002;-82
2024/03/30 04:49:08;;;;;;;38.60;8.70;;;;;;;10.31;66.98;96314.44;107067;1241;100323;-81
2024/03/30 04:52:04;;;;;;;38.80;7.60;;;;;;;10.27;67.03;96319.16;107016;1244;99718;-84
2024/03/30 04:55:11;;;;;;;37.80;8.40;;;;;;;10.22;67.05;96319.86;107304;1244;99311;-88
2024/03/30 04:58:17;;;;;;;38.90;10.50;;;;;;;10.13;67.29;96318.66;107607;1241;99705;-83
2024/03/30 05:01:16;;;;;;;49.20;10.60;;;;;;;10.07;67.48;96321.36;107665;1239;104940;-82
2024/03/30 05:04:23;;;;;;;54.90;12.70;;;;;;;10.01;67.59;96328.69;107653;1248;100587;-84
2024/03/30 05:07:20;;;;;;;62.20;12.90;;;;;;;9.97;67.69;96327.89;107667;1241;99528;-81
2024/03/30 05:10:27;;;;;;;46.80;12.90;;;;;;;9.92;67.77;96334.71;107674;1243;99184;-80
2024/03/30 05:13:27;;;;;;;59.70;12.10;;;;;;;9.96;68.07;96341.59;107679;1241;99698;-80
2024/03/30 05:16:34;;;;;;;54.90;11.80;;;;;;;10.02;68.04;96332.95;107587;1249;104767;-81
2024/03/30 05:23:06;;;;;;;48.60;8.40;;;;;;;10.12;68.36;96332.56;107660;1242;99274;-81
2024/03/30 05:26:14;;;;;;;44.70;7.50;;;;;;;10.25;68.36;96324.72;107616;1240;99203;-80
2024/03/30 05:29:21;;;;;;;48.10;6.00;;;;;;;10.47;67.96;96328.13;107694;1241;99762;-80
2024/03/30 05:32:21;;;;;;;42.20;6.80;;;;;;;10.61;67.63;96330.36;107673;1241;105044;-82
2024/03/30 05:35:21;;;;;;;39.00;6.20;;;;;;;10.67;67.46;96335.67;107604;1249;101935;-81
2024/03/30 05:38:28;;;;;;;37.60;7.20;;;;;;;10.69;67.34;96332.16;107641;1248;99334;-80
2024/03/30 05:41:35;;;;;;;38.80;6.30;;;;;;;10.70;67.35;96335.91;107640;1243;99186;-80
2024/03/30 05:44:42;;;;;;;33.70;5.60;;;;;;;10.70;67.32;96341.52;107625;1241;99296;-80
2024/03/30 05:47:49;;;;;;;42.60;6.50;;;;;;;10.74;67.35;96344.96;107638;1248;104796;-80
2024/03/30 05:50:56;;;;;;;38.70;6.50;;;;;;;10.76;67.50;96345.86;107569;1248;100331;-81
2024/03/30 05:54:03;;;;;;;35.00;6.60;;;;;;;10.80;67.45;96347.34;107658;1249;99813;-81
2024/03/30 05:57:10;;;;;;;33.40;6.20;;;;;;;10.84;67.53;96345.89;107648;1251;99375;-81
2024/03/30 06:00:17;;;;;;;43.40;7.90;;;;;;;10.90;67.58;96343.39;107719;1241;99718;-80
2024/03/30 06:03:24;;;;;;;30.60;6.70;;;;;;;10.93;67.56;96346.07;107662;1241;103859;-81
2024/03/30 06:06:24;;;;;;;38.50;6.50;;;;;;;10.97;67.58;96343.82;107671;1244;100307;-83
2024/03/30 06:09:30;;;;;;;39.60;8.00;;;;;;;11.06;67.73;96342.48;107587;1243;99587;-83
2024/03/30 06:12:37;;;;;;;51.70;12.30;;;;;;;11.16;67.87;96344.25;107629;1239;99316;-81
2024/03/30 06:15:44;;;;;;;53.20;10.60;;;;;;;11.30;67.99;96342.85;107657;1241;99807;-79
2024/03/30 06:18:33;;;;;;;54.00;10.00;;;;;;;11.44;67.51;96338.40;107724;1242;104616;-82
2024/03/30 06:21:26;;;;;;;50.60;9.90;;;;;;;11.62;67.33;96336.23;107703;1240;100270;-81
2024/03/30 06:24:26;;;;;;;49.10;9.10;;;;;;;11.85;67.08;96330.98;107655;1241;99282;-81
2024/03/30 06:27:33;;;;;;;48.60;7.80;;;;;;;12.08;66.56;96326.15;107680;1242;99289;-81
2024/03/30 06:30:40;;;;;;;54.30;10.00;;;;;;;12.24;66.22;96327.33;107700;1248;99818;-81
2024/03/30 06:33:48;;;;;;;63.30;11.80;;;;;;;12.44;65.46;96328.55;107660;1251;103516;-80
2024/03/30 06:36:37;;;;;;;61.30;11.30;;;;;;;12.68;65.16;96323.33;107662;1249;100469;-81
2024/03/30 06:46:34;;;;;;;53.80;8.80;;;;;;;13.14;64.57;96318.78;107657;1242;99744;-81
2024/03/30 06:49:41;;;;;;;48.80;8.90;;;;;;;13.32;64.13;96323.02;107684;1238;103844;-81
2024/03/30 06:52:37;;;;;;;52.70;9.40;;;;;;;13.50;63.84;96320.70;107655;1246;100908;-82
2024/03/30 06:55:44;;;;;;;48.80;8.50;;;;;;;13.68;63.77;96320.92;107661;1249;100590;-83
2024/03/30 06:58:50;;;;;;;39.60;7.60;;;;;;;13.85;63.11;96328.03;107627;1241;99260;-81
2024/03/30 07:01:58;;;;;;;54.90;8.70;;;;;;;14.04;62.86;96329.60;107608;1242;99247;-80
2024/03/30 07:04:57;;;;;;;60.20;8.90;;;;;;;14.23;62.47;96329.30;107799;1241;104606;-91
2024/03/30 07:08:04;;;;;;;54.60;9.60;;;;;;;14.39;62.09;96331.13;107470;1240;100231;-90
2024/03/30 07:11:11;;;;;;;50.10;9.50;;;;;;;14.57;61.86;96334.40;107566;1241;99943;-89
2024/03/30 07:14:18;;;;;;;47.70;9.70;;;;;;;14.75;61.42;96332.60;107605;1242;99185;-89
2024/03/30 07:17:17;;;;;;;69.10;9.20;;;;;;;14.93;60.21;96327.91;107667;1240;100584;-80
2024/03/30 07:20:24;;;;;;;54.90;8.90;;;;;;;15.12;60.07;96332.02;107728;1241;103839;-82
2024/03/30 07:23:27;;;;;;;54.00;8.50;;;;;;;15.32;59.21;96333.77;107715;1242;99906;-77
2024/03/30 07:26:34;;;;;;;54.30;9.10;;;;;;;15.51;59.06;96336.83;107623;1241;99258;-76
2024/03/30 07:29:41;;;;;;;58.90;9.30;;;;;;;15.68;58.00;96342.70;107626;1248;99278;-76
2024/03/30 07:32:41;;;;;;;52.20;8.80;;;;;;;15.86;57.23;96344.84;107568;1242;99851;-77
2024/03/30 07:35:38;;;;;;;66.90;9.60;;;;;;;16.07;56.52;96349.45;107562;1243;103896;-77
2024/03/30 07:38:45;;;;;;;56.40;8.80;;;;;;;16.32;56.26;96361.42;107519;1241;99870;-78
2024/03/30 07:41:52;;;;;;;60.40;9.30;;;;;;;16.61;55.64;96362.02;107582;1238;99385;-78
2024/03/30 07:44:48;;;;;;;52.70;8.10;;;;;;;16.91;55.11;96360.16;107697;1241;99353;-78
2024/03/30 07:47:47;;;;;;;52.20;8.70;;;;;;;17.19;54.41;96359.05;107715;1241;100327;-80
2024/03/30 07:50:54;;;;;;;49.60;7.10;;;;;;;17.44;52.81;96358.39;107726;1239;105089;-79
2024/03/30 07:53:49;;;;;;;58.40;8.30;;;;;;;17.65;53.01;96363.38;107710;1241;101280;-81
2024/03/30 07:56:56;;;;;;;62.00;9.60;;;;;;;17.92;53.16;96361.98;107660;1248;100059;-81
2024/03/30 08:00:03;;;;;;;50.70;8.10;;;;;;;18.25;52.21;96361.68;107844;1245;99238;-79
2024/03/30 08:03:10;;;;;;;54.90;8.00;;;;;;;18.48;51.92;96354.55;107620;1241;99712;-80
2024/03/30 08:06:11;;;;;;;39.50;7.30;;;;;;;18.74;51.42;96352.79;107706;1242;103937;-80
2024/03/30 08:09:01;;;;;;;46.70;8.20;;;;;;;18.97;50.87;96348.63;107665;1240;101381;-80
2024/03/30 08:12:08;;;;;;;49.30;7.60;;;;;;;19.12;50.53;96341.73;107643;1243;99563;-81
2024/03/30 08:15:15;;;;;;;52.50;9.00;;;;;;;19.38;49.99;96344.86;107640;1243;99373;-80
2024/03/30 08:18:10;;;;;;;54.30;8.80;;;;;;;19.64;49.16;96346.24;107664;1243;99269;-77
2024/03/30 08:21:18;;;;;;;45.90;7.20;;;;;;;19.88;49.20;96349.25;107708;1241;103612;-80
2024/03/30 08:24:05;;;;;;;60.20;9.10;;;;;;;20.20;48.70;96350.02;107639;1242;101562;-84
2024/03/30 08:27:12;;;;;;;57.30;8.90;;;;;;;20.46;47.68;96348.25;107675;1241;99848;-84
2024/03/30 08:29:54;;;;;;;51.00;7.80;;;;;;;20.66;47.50;96345.23;107663;1242;99274;-81
2024/03/30 08:32:41;;;;;;;53.60;7.60;;;;;;;20.93;46.81;96346.11;107648;1241;99163;-79
2024/03/30 08:35:48;;;;;;;52.70;9.30;;;;;;;21.23;46.14;96340.01;107640;1237;105018;-81
2024/03/30 08:38:44;;;;;;;69.00;9.90;;;;;;;21.56;45.49;96342.36;107685;1240;101027;-85
2024/03/30 08:41:44;;;;;;;62.10;10.10;;;;;;;21.72;44.68;96339.11;107624;1248;99352;-81
2024/03/30 08:44:33;;;;;;;58.10;10.30;;;;;;;21.92;43.94;96343.17;107645;1245;99363;-80
2024/03/30 08:47:30;;;;;;;58.00;10.00;;;;;;;22.16;43.56;96344.45;107651;1240;100512;-78
2024/03/30 08:50:16;;;;;;;63.40;10.90;;;;;;;22.32;41.01;96341.05;107627;1242;103884;-77
2024/03/30 08:52:51;;;;;;;58.10;9.00;;;;;;;22.35;39.75;96342.72;107714;1237;101227;-78
2024/03/30 08:55:34;;;;;;;61.80;9.40;;;;;;;22.40;38.98;96340.85;107669;1242;99885;-81
2024/03/30 08:58:24;;;;;;;64.50;8.70;;;;;;;22.39;36.97;96345.59;107664;1241;99250;-80
2024/03/30 09:01:11;;;;;;;63.80;10.00;;;;;;;22.38;36.92;96332.30;107614;1242;100491;-82
2024/03/30 09:03:51;;;;;;;64.60;9.70;;;;;;;22.55;37.81;96324.46;107684;1242;105117;-83
2024/03/30 09:06:55;;;;;;;63.00;9.00;;;;;;;22.84;36.89;96332.32;107700;1241;100554;-82
2024/03/30 09:09:43;;;;;;;70.00;9.50;;;;;;;22.97;36.85;96337.41;107683;1241;100389;-80
2024/03/30 09:12:30;;;;;;;76.30;10.70;;;;;;;23.06;36.19;96330.23;107627;1241;100479;-81
2024/03/30 09:15:14;;;;;;;59.00;10.40;;;;;;;23.20;36.13;96324.52;107585;1243;99887;-81
2024/03/30 09:18:23;;;;;;;66.20;9.30;;;;;;;23.33;35.13;96320.84;107642;1242;103665;-80
2024/03/30 09:21:08;;;;;;;59.90;9.80;;;;;;;23.42;34.82;96316.66;107726;1240;101308;-83
2024/03/30 09:23:57;;;;;;;55.30;9.30;;;;;;;23.60;35.10;96314.95;107677;1250;99661;-79
2024/03/30 09:26:33;;;;;;;54.80;9.30;;;;;;;23.75;34.25;96312.14;107645;1236;99256;-81
2024/03/30 09:29:40;;;;;;;52.60;7.90;;;;;;;23.91;35.03;96311.23;107738;1238;99714;-79
2024/03/30 09:32:16;;;;;;;63.50;8.30;;;;;;;24.15;35.35;96311.33;107709;1236;103912;-81
2024/03/30 09:35:03;;;;;;;52.70;8.50;;;;;;;24.39;34.51;96311.62;107715;1236;100973;-80
2024/03/30 09:37:53;;;;;;;57.60;8.90;;;;;;;24.56;33.83;96311.75;107668;1241;99288;-82
2024/03/30 09:40:22;;;;;;;61.30;9.40;;;;;;;24.71;33.65;96304.91;107671;1251;100520;-84
2024/03/30 09:43:09;;;;;;;58.20;8.30;;;;;;;24.82;33.41;96300.73;107699;1248;99807;-82
2024/03/30 09:45:39;;;;;;;52.10;9.30;;;;;;;24.88;32.83;96300.19;107608;1241;104746;-75
2024/03/30 09:48:27;;;;;;;54.90;9.80;;;;;;;24.91;33.26;96295.53;107691;1249;108145;-76
2024/03/30 09:51:15;;;;;;;47.60;8.40;;;;;;;25.01;32.68;96296.48;107683;1246;99312;-74
2024/03/30 09:53:43;;;;;;;61.90;9.60;;;;;;;25.14;33.13;96290.45;111063;1236;97116;-75
2024/03/30 09:56:11;;;;;;;49.20;8.60;;;;;;;25.25;32.53;96290.31;111082;1238;97570;-75
2024/03/30 09:58:38;;;;;;;56.00;9.00;;;;;;;25.36;32.70;96285.42;109212;1241;99378;-76
2024/03/30 10:01:05;;;;;;;61.60;9.20;;;;;;;25.54;32.47;96288.20;107649;1243;100501;-76
2024/03/30 10:03:37;;;;;;;70.00;11.70;;;;;;;25.68;32.56;96286.79;107716;1248;99319;-77
2024/03/30 10:06:11;;;;;;;58.40;9.50;;;;;;;25.83;32.86;96290.06;107586;1242;99284;-76
2024/03/30 10:08:42;;;;;;;54.30;9.80;;;;;;;25.99;32.02;96288.48;107734;1236;99813;-77
2024/03/30 10:11:11;;;;;;;63.70;9.90;;;;;;;26.16;31.81;96289.35;107723;1236;103390;-75
2024/03/30 10:14:27;;;;;;;53.80;9.50;;;;;;;26.31;31.64;96286.04;107706;1242;100198;-86
2024/03/30 10:16:54;;;;;;;49.60;9.40;;;;;;;26.45;31.39;96288.77;107449;1248;100428;-83
2024/03/30 10:19:23;;;;;;;74.00;10.00;;;;;;;26.60;31.43;96284.36;107716;1237;99285;-83
2024/03/30 10:21:50;;;;;;;69.90;10.50;;;;;;;26.73;30.31;96285.52;107676;1242;99837;-82
2024/03/30 10:24:28;;;;;;;70.20;11.50;;;;;;;26.85;28.62;96285.94;107645;1236;99357;-87
2024/03/30 10:26:55;;;;;;;68.80;9.80;;;;;;;26.92;28.11;96281.67;107744;1236;101214;-84
2024/03/30 10:29:25;;;;;;;79.70;11.80;;;;;;;26.95;27.44;96281.63;107651;1251;99311;-83
2024/03/30 10:31:54;;;;;;;69.60;11.80;;;;;;;26.81;25.70;96288.39;107796;1241;99438;-77
2024/03/30 10:34:41;;;;;;;79.00;12.00;;;;;;;26.58;25.55;96288.47;107654;1240;99790;-84
2024/03/30 10:37:08;;;;;;;66.80;11.40;;;;;;;26.44;26.24;96284.81;107802;1249;104903;-82
2024/03/30 10:39:44;;;;;;;74.00;10.70;;;;;;;26.37;26.25;96278.13;107818;1242;100409;-84
2024/03/30 10:42:12;;;;;;;68.70;10.10;;;;;;;26.31;25.87;96279.80;107755;1246;99961;-81
2024/03/30 10:44:39;;;;;;;92.20;11.80;;;;;;;26.27;25.77;96281.63;107739;1239;99185;-83
2024/03/30 10:47:27;;;;;;;78.40;12.50;;;;;;;26.24;26.10;96289.22;107708;1240;100496;-80
2024/03/30 10:49:54;;;;;;;73.00;11.00;;;;;;;26.17;26.32;96289.05;107702;1240;104408;-82
2024/03/30 10:52:27;;;;;;;68.30;9.40;;;;;;;26.03;25.96;96296.61;107770;1241;99253;-76
2024/03/30 10:54:57;;;;;;;90.30;10.70;;;;;;;25.91;25.42;96302.21;107817;1243;99637;-76
2024/03/30 10:57:47;;;;;;;77.20;11.90;;;;;;;25.79;24.79;96303.88;107694;1239;100600;-80
2024/03/30 11:00:34;;;;;;;76.60;10.80;;;;;;;25.76;25.33;96305.55;107676;1241;100542;-77
2024/03/30 11:03:41;;;;;;;67.10;10.20;;;;;;;25.76;25.53;96305.44;107689;1240;103432;-80
2024/03/30 11:06:20;;;;;;;84.10;12.90;;;;;;;25.79;25.48;96313.12;107696;1241;100305;-80
2024/03/30 11:08:50;;;;;;;69.10;11.00;;;;;;;26.01;25.79;96316.67;107631;1251;99317;-79
2024/03/30 11:11:17;;;;;;;66.20;10.50;;;;;;;26.24;24.95;96317.33;107486;1236;99186;-78
2024/03/30 11:13:43;;;;;;;66.10;10.50;;;;;;;26.37;24.25;96314.59;107775;1242;99344;-85
2024/03/30 11:16:30;;;;;;;66.60;10.50;;;;;;;26.46;23.80;96322.18;107737;1241;99356;-86
2024/03/30 11:19:45;;;;;;;80.40;10.90;;;;;;;26.39;23.88;96320.98;107587;1240;101284;-85
2024/03/30 11:22:27;;;;;;;78.10;11.70;;;;;;;26.26;24.26;96315.46;107602;1246;99359;-85
2024/03/30 11:25:09;;;;;;;71.90;11.40;;;;;;;26.29;23.61;96314.36;107686;1249;99336;-86
2024/03/30 11:27:46;;;;;;;68.10;10.90;;;;;;;26.35;24.62;96317.96;107707;1239;100633;-86
2024/03/30 11:30:45;;;;;;;81.30;10.30;;;;;;;26.38;23.78;96318.26;107784;1241;104909;-83
2024/03/30 11:33:22;;;;;;;66.70;10.60;;;;;;;26.39;23.38;96319.00;107773;1240;100437;-86
2024/03/30 11:36:00;;;;;;;60.70;9.90;;;;;;;26.45;22.89;96321.02;107983;1241;99817;-82
2024/03/30 11:38:32;;;;;;;61.60;9.10;;;;;;;26.44;22.52;96320.73;107714;1242;99346;-84
2024/03/30 11:41:20;;;;;;;75.30;9.30;;;;;;;26.23;21.94;96323.92;107737;1241;99884;-85
2024/03/30 11:44:09;;;;;;;74.10;10.90;;;;;;;25.93;22.16;96317.61;107794;1251;103822;-84
2024/03/30 11:46:57;;;;;;;56.40;9.50;;;;;;;25.77;23.37;96321.34;107701;1241;100235;-82
2024/03/30 11:49:27;;;;;;;55.90;8.90;;;;;;;25.66;23.30;96316.64;107722;1248;100137;-83
2024/03/30 11:52:10;;;;;;;75.70;9.80;;;;;;;25.50;23.70;96317.25;107771;1241;99343;-84
2024/03/30 11:55:04;;;;;;;64.50;10.80;;;;;;;25.55;23.84;96309.47;107685;1240;99732;-84
2024/03/30 11:57:31;;;;;;;65.80;9.80;;;;;;;25.61;23.27;96308.27;107723;1242;104587;-84
2024/03/30 12:00:08;;;;;;;67.10;11.60;;;;;;;25.49;23.56;96308.14;107752;1243;99276;-84
2024/03/30 12:03:02;;;;;;;77.10;10.70;;;;;;;25.39;24.05;96315.46;107719;1241;99184;-85
2024/03/30 12:05:29;;;;;;;63.70;9.30;;;;;;;25.21;23.79;96305.42;107691;1246;99287;-82
2024/03/30 12:08:45;;;;;;;65.80;10.20;;;;;;;25.00;24.12;96302.06;107414;1249;99272;-84
2024/03/30 12:11:19;;;;;;;55.50;8.40;;;;;;;24.87;24.41;96303.25;107739;1251;103515;-82
2024/03/30 12:13:48;;;;;;;60.80;9.00;;;;;;;24.82;24.43;96302.21;107712;1241;100271;-86
2024/03/30 12:16:30;;;;;;;58.10;8.80;;;;;;;24.71;23.80;96298.15;107711;1241;99612;-76
2024/03/30 12:19:16;;;;;;;68.90;9.50;;;;;;;24.58;23.60;96294.03;107669;1240;99363;-76
2024/03/30 12:22:05;;;;;;;66.40;10.50;;;;;;;24.45;24.06;96285.08;107732;1242;99667;-77
2024/03/30 12:24:55;;;;;;;64.10;9.60;;;;;;;24.43;24.68;96281.08;107718;1241;103798;-78
2024/03/30 12:27:24;;;;;;;56.40;9.60;;;;;;;24.45;25.14;96279.48;107747;1242;108944;-80
2024/03/30 12:30:31;;;;;;;77.10;9.40;;;;;;;24.33;24.51;96273.53;107797;1249;99263;-75
2024/03/30 12:33:23;;;;;;;77.80;10.10;;;;;;;24.16;24.55;96267.33;107746;1236;99345;-84
2024/03/30 12:35:49;;;;;;;63.70;9.30;;;;;;;23.96;24.73;96257.61;110132;1240;99253;-82
2024/03/30 12:38:19;;;;;;;57.80;8.30;;;;;;;23.90;24.67;96257.08;107918;1242;99858;-83
2024/03/30 12:40:46;;;;;;;59.40;9.30;;;;;;;23.87;24.80;96256.65;110164;1238;101207;-83
2024/03/30 12:43:36;;;;;;;69.70;9.90;;;;;;;23.83;24.62;96253.59;108435;1242;99241;-82
2024/03/30 12:46:24;;;;;;;62.30;8.40;;;;;;;23.78;24.78;96255.90;107736;1242;99333;-77
2024/03/30 12:49:11;;;;;;;71.20;9.40;;;;;;;23.73;24.87;96261.62;107734;1238;99308;-84
2024/03/30 12:51:37;;;;;;;60.90;8.70;;;;;;;23.62;24.89;96258.63;107737;1240;104486;-84
2024/03/30 12:54:25;;;;;;;53.80;7.60;;;;;;;23.59;25.20;96258.73;107564;1241;99313;-84
2024/03/30 12:57:11;;;;;;;71.80;10.20;;;;;;;23.51;24.80;96256.98;107773;1241;99919;-84
2024/03/30 13:00:00;;;;;;;71.30;9.30;;;;;;;23.42;24.90;96256.38;107711;1241;99255;-86
2024/03/30 13:02:36;;;;;;;52.20;8.90;;;;;;;23.37;25.43;96253.33;107933;1240;99690;-87
2024/03/30 13:05:38;;;;;;;70.40;11.20;;;;;;;23.37;25.46;96251.83;107700;1241;104975;-83
2024/03/30 13:08:13;;;;;;;80.30;8.80;;;;;;;23.35;25.38;96244.83;107690;1242;100346;-81
2024/03/30 13:11:03;;;;;;;70.20;9.60;;;;;;;23.30;25.10;96243.16;107727;1240;99414;-81
2024/03/30 13:13:32;;;;;;;66.90;9.90;;;;;;;23.24;25.35;96239.27;107650;1239;100520;-81
2024/03/30 13:16:19;;;;;;;56.60;10.50;;;;;;;23.23;25.73;96242.73;107635;1237;99763;-81
2024/03/30 13:19:32;;;;;;;70.80;9.50;;;;;;;23.20;25.88;96238.23;107711;1236;103921;-82
2024/03/30 13:21:59;;;;;;;;;;;;;;;23.19;26.15;96228.91;107702;1246;101364;-83
2024/03/30 13:25:07;;;;;;;70.40;10.90;;;;;;;23.19;26.40;96228.33;107662;1241;99344;-82
2024/03/30 13:27:40;;;;;;;62.00;9.20;;;;;;;23.20;26.18;96228.74;107768;1248;100442;-85